createdAt,value
2023-01-13T00:01:10.841Z,9.47
2023-01-13T00:03:37.489Z,9.43
2023-01-13T00:06:04.245Z,9.27
2023-01-13T00:08:30.935Z,9.27
2023-01-13T00:10:57.306Z,9.25
2023-01-13T00:13:23.965Z,9.23
2023-01-13T00:15:57.973Z,9.19
2023-01-13T00:18:25.041Z,9.11
2023-01-13T00:21:16.057Z,9.10
2023-01-13T00:23:43.344Z,9.11
2023-01-13T00:26:13.207Z,9.05
2023-01-13T00:28:39.682Z,9.05
2023-01-13T00:31:09.072Z,8.98
2023-01-13T00:33:36.295Z,8.86
2023-01-13T00:36:04.282Z,8.86
2023-01-13T00:38:32.349Z,8.80
2023-01-13T00:41:00.257Z,8.81
2023-01-13T00:43:27.580Z,8.74
2023-01-13T00:45:54.980Z,8.76
2023-01-13T00:48:23.341Z,8.75
2023-01-13T00:50:58.293Z,8.69
2023-01-13T00:53:25.631Z,8.79
2023-01-13T00:56:13.906Z,8.86
2023-01-13T00:58:40.954Z,8.77
2023-01-13T01:01:10.135Z,8.82
2023-01-13T01:03:36.891Z,8.90
2023-01-13T01:06:09.075Z,8.90
2023-01-13T01:08:36.100Z,8.87
2023-01-13T01:11:04.977Z,8.81
2023-01-13T01:13:31.816Z,8.76
2023-01-13T01:15:58.948Z,8.77
2023-01-13T01:18:25.566Z,8.81
2023-01-13T01:20:51.883Z,8.78
2023-01-13T01:23:18.214Z,8.81
2023-01-13T01:25:45.524Z,8.88
2023-01-13T01:28:11.991Z,8.88
2023-01-13T01:30:39.385Z,8.84
2023-01-13T01:33:05.751Z,8.87
2023-01-13T01:35:32.118Z,8.80
2023-01-13T01:37:58.518Z,8.85
2023-01-13T01:40:26.728Z,8.85
2023-01-13T01:42:53.414Z,8.87
2023-01-13T01:45:22.521Z,8.81
2023-01-13T01:47:56.570Z,8.75
2023-01-13T01:50:23.803Z,8.86
2023-01-13T01:52:56.574Z,8.80
2023-01-13T01:55:29.574Z,8.86
2023-01-13T01:58:07.810Z,8.86
2023-01-13T02:00:34.259Z,8.91
2023-01-13T02:03:01.300Z,8.92
2023-01-13T02:05:27.930Z,8.85
2023-01-13T02:07:57.711Z,8.71
2023-01-13T02:10:27.140Z,8.63
2023-01-13T02:12:55.213Z,8.62
2023-01-13T02:15:28.507Z,8.75
2023-01-13T02:18:13.790Z,8.68
2023-01-13T02:21:07.987Z,8.76
2023-01-13T02:23:58.536Z,8.66
2023-01-13T02:27:02.531Z,8.67
2023-01-13T02:29:44.327Z,8.62
2023-01-13T02:32:20.483Z,8.62
2023-01-13T02:35:00.056Z,8.68
2023-01-13T02:37:31.870Z,8.60
2023-01-13T02:40:17.559Z,8.61
2023-01-13T02:42:50.981Z,8.64
2023-01-13T02:45:33.706Z,8.62
2023-01-13T02:48:02.564Z,8.63
2023-01-13T02:50:35.127Z,8.78
2023-01-13T02:53:07.893Z,8.67
2023-01-13T02:55:38.196Z,8.80
2023-01-13T02:58:08.700Z,8.89
2023-01-13T03:00:37.958Z,8.86
2023-01-13T03:03:04.677Z,8.80
2023-01-13T03:05:33.207Z,8.76
2023-01-13T03:08:20.874Z,8.78
2023-01-13T03:10:53.208Z,8.77
2023-01-13T03:13:42.457Z,8.79
2023-01-13T03:16:23.452Z,8.83
2023-01-13T03:19:00.894Z,8.88
2023-01-13T03:21:32.030Z,8.72
2023-01-13T03:24:16.836Z,8.88
2023-01-13T03:27:04.308Z,8.83
2023-01-13T03:29:36.964Z,8.80
2023-01-13T03:32:22.120Z,8.80
2023-01-13T03:35:18.943Z,8.81
2023-01-13T03:38:15.756Z,8.74
2023-01-13T03:40:48.905Z,8.79
2023-01-13T03:43:22.012Z,8.78
2023-01-13T03:45:55.634Z,8.77
2023-01-13T03:48:25.636Z,8.84
2023-01-13T03:50:55.674Z,8.78
2023-01-13T03:53:30.659Z,8.80
2023-01-13T03:56:15.553Z,8.58
2023-01-13T03:58:47.586Z,8.71
2023-01-13T04:01:24.744Z,8.50
2023-01-13T04:04:00.218Z,8.64
2023-01-13T04:07:06.277Z,8.62
2023-01-13T04:09:49.450Z,8.70
2023-01-13T04:12:24.715Z,8.71
2023-01-13T04:14:52.487Z,8.68
2023-01-13T04:17:19.257Z,8.65
2023-01-13T04:19:45.683Z,8.55
2023-01-13T04:22:12.048Z,8.45
2023-01-13T04:24:38.373Z,8.46
2023-01-13T04:27:04.747Z,8.43
2023-01-13T04:29:31.163Z,8.48
2023-01-13T04:31:57.627Z,8.52
2023-01-13T04:34:23.972Z,8.46
2023-01-13T04:36:50.392Z,8.51
2023-01-13T04:39:16.780Z,8.41
2023-01-13T04:41:43.163Z,8.42
2023-01-13T04:44:09.518Z,8.31
2023-01-13T04:46:36.261Z,8.36
2023-01-13T04:49:02.753Z,8.33
2023-01-13T04:51:29.245Z,8.31
2023-01-13T04:53:55.618Z,8.29
2023-01-13T04:56:22.049Z,8.28
2023-01-13T04:58:48.372Z,8.23
2023-01-13T05:01:14.996Z,8.25
2023-01-13T05:03:41.381Z,8.26
2023-01-13T05:06:07.813Z,8.28
2023-01-13T05:08:34.176Z,8.29
2023-01-13T05:11:01.676Z,8.33
2023-01-13T05:13:28.137Z,8.33
2023-01-13T05:15:54.593Z,8.34
2023-01-13T05:18:21.839Z,8.43
2023-01-13T05:20:49.433Z,8.39
2023-01-13T05:23:15.873Z,8.38
2023-01-13T05:25:44.366Z,8.37
2023-01-13T05:28:12.444Z,8.38
2023-01-13T05:30:41.451Z,8.38
2023-01-13T05:33:09.088Z,8.48
2023-01-13T05:35:38.790Z,8.41
2023-01-13T05:38:05.249Z,8.44
2023-01-13T05:40:31.842Z,8.40
2023-01-13T05:43:06.958Z,8.40
2023-01-13T05:45:33.661Z,8.48
2023-01-13T05:48:01.086Z,8.39
2023-01-13T05:50:27.486Z,8.29
2023-01-13T05:52:54.155Z,8.26
2023-01-13T05:55:20.713Z,8.15
2023-01-13T05:57:47.518Z,8.10
2023-01-13T06:00:16.968Z,8.15
2023-01-13T06:02:43.638Z,8.19
2023-01-13T06:05:13.118Z,8.15
2023-01-13T06:07:41.774Z,8.10
2023-01-13T06:10:09.278Z,8.13
2023-01-13T06:12:36.852Z,8.15
2023-01-13T06:15:03.390Z,8.11
2023-01-13T06:17:30.028Z,8.06
2023-01-13T06:19:56.558Z,8.05
2023-01-13T06:22:30.858Z,8.09
2023-01-13T06:24:57.541Z,8.09
2023-01-13T06:27:24.776Z,8.11
2023-01-13T06:29:52.477Z,8.15
2023-01-13T06:32:24.568Z,8.18
2023-01-13T06:34:56.302Z,8.24
2023-01-13T06:37:24.321Z,8.12
2023-01-13T06:39:54.716Z,8.26
2023-01-13T06:42:22.140Z,8.23
2023-01-13T06:44:49.568Z,8.28
2023-01-13T06:47:16.765Z,8.18
2023-01-13T06:49:43.162Z,8.21
2023-01-13T06:52:09.556Z,8.21
2023-01-13T06:54:36.730Z,8.28
2023-01-13T06:57:03.338Z,8.33
2023-01-13T06:59:29.770Z,8.26
2023-01-13T07:01:56.946Z,8.23
2023-01-13T07:04:26.577Z,8.25
2023-01-13T07:06:52.894Z,8.30
2023-01-13T07:09:19.454Z,8.26
2023-01-13T07:11:47.325Z,8.31
2023-01-13T07:14:13.784Z,8.34
2023-01-13T07:16:40.194Z,8.34
2023-01-13T07:19:06.671Z,8.40
2023-01-13T07:21:33.017Z,8.39
2023-01-13T07:23:59.385Z,8.44
2023-01-13T07:26:25.875Z,8.47
2023-01-13T07:28:52.242Z,8.46
2023-01-13T07:31:20.571Z,8.51
2023-01-13T07:33:48.151Z,8.50
2023-01-13T07:36:15.265Z,8.50
2023-01-13T07:38:41.974Z,8.46
2023-01-13T07:41:12.907Z,8.54
2023-01-13T07:43:39.370Z,8.56
2023-01-13T07:46:06.570Z,8.55
2023-01-13T07:48:34.939Z,8.53
2023-01-13T07:51:06.531Z,8.56
2023-01-13T07:53:33.626Z,8.54
2023-01-13T07:56:01.054Z,8.56
2023-01-13T07:58:28.475Z,8.61
2023-01-13T08:00:56.011Z,8.64
2023-01-13T08:03:23.361Z,8.61
2023-01-13T08:05:49.826Z,8.61
2023-01-13T08:08:16.579Z,8.63
2023-01-13T08:10:43.100Z,8.67
2023-01-13T08:13:17.582Z,8.69
2023-01-13T08:15:44.907Z,8.76
2023-01-13T08:18:12.014Z,8.75
2023-01-13T08:20:38.513Z,8.78
2023-01-13T08:23:07.200Z,8.75
2023-01-13T08:25:34.319Z,8.79
2023-01-13T08:28:00.755Z,8.79
2023-01-13T08:30:28.282Z,8.78
2023-01-13T08:32:54.905Z,8.82
2023-01-13T08:35:22.049Z,8.79
2023-01-13T08:37:49.484Z,8.79
2023-01-13T08:40:17.321Z,8.78
2023-01-13T08:42:43.833Z,8.78
2023-01-13T08:45:10.863Z,8.75
2023-01-13T08:47:37.302Z,8.75
2023-01-13T08:50:04.717Z,8.75
2023-01-13T08:52:31.250Z,8.58
2023-01-13T08:54:57.865Z,8.56
2023-01-13T08:57:24.558Z,8.58
2023-01-13T08:59:51.040Z,8.39
2023-01-13T09:02:21.358Z,8.40
2023-01-13T09:04:48.858Z,8.28
2023-01-13T09:07:15.903Z,8.29
2023-01-13T09:09:42.475Z,8.28
2023-01-13T09:12:12.229Z,8.26
2023-01-13T09:14:39.411Z,8.21
2023-01-13T09:17:06.433Z,8.21
2023-01-13T09:19:33.209Z,8.17
2023-01-13T09:21:59.658Z,8.15
2023-01-13T09:24:26.572Z,8.11
2023-01-13T09:26:53.086Z,8.12
2023-01-13T09:29:19.830Z,8.05
2023-01-13T09:31:46.575Z,8.02
2023-01-13T09:34:16.647Z,7.97
2023-01-13T09:36:43.151Z,8.01
2023-01-13T09:39:09.531Z,8.04
2023-01-13T09:41:42.321Z,8.09
2023-01-13T09:44:36.082Z,8.04
2023-01-13T09:47:09.644Z,8.09
2023-01-13T09:49:40.269Z,8.12
2023-01-13T09:52:12.207Z,8.20
2023-01-13T09:54:42.822Z,8.25
2023-01-13T09:57:12.851Z,8.28
2023-01-13T09:59:39.936Z,8.28
2023-01-13T10:02:12.647Z,8.33
2023-01-13T10:04:39.298Z,8.32
2023-01-13T10:07:14.483Z,8.28
2023-01-13T10:09:51.696Z,8.29
2023-01-13T10:12:24.972Z,8.35
2023-01-13T10:14:55.186Z,8.41
2023-01-13T10:17:31.545Z,8.43
2023-01-13T10:20:20.967Z,8.51
2023-01-13T10:23:19.712Z,8.54
2023-01-13T10:26:20.429Z,8.56
2023-01-13T10:28:54.773Z,8.55
2023-01-13T10:31:21.918Z,8.56
2023-01-13T10:33:49.318Z,8.57
2023-01-13T10:36:18.567Z,8.52
2023-01-13T10:38:47.775Z,8.48
2023-01-13T10:41:17.157Z,8.43
2023-01-13T10:44:01.819Z,8.41
2023-01-13T10:46:29.556Z,8.51
2023-01-13T10:48:58.251Z,8.55
2023-01-13T10:51:29.110Z,8.59
2023-01-13T10:54:12.507Z,8.61
2023-01-13T10:56:41.762Z,8.60
2023-01-13T10:59:19.528Z,8.63
2023-01-13T11:02:24.955Z,8.69
2023-01-13T11:04:55.766Z,8.77
2023-01-13T11:07:34.381Z,8.75
2023-01-13T11:10:07.205Z,8.79
2023-01-13T11:12:39.316Z,8.80
2023-01-13T11:15:13.780Z,8.79
2023-01-13T11:17:45.934Z,8.89
2023-01-13T11:20:17.396Z,8.92
2023-01-13T11:22:47.942Z,8.96
2023-01-13T11:25:26.858Z,8.98
2023-01-13T11:28:00.671Z,8.96
2023-01-13T11:31:05.482Z,8.95
2023-01-13T11:33:38.047Z,8.98
2023-01-13T11:36:17.782Z,9.04
2023-01-13T11:38:58.557Z,9.12
2023-01-13T11:41:47.335Z,9.18
2023-01-13T11:44:21.132Z,9.22
2023-01-13T11:46:52.269Z,9.25
2023-01-13T11:49:30.903Z,9.30
2023-01-13T11:52:15.731Z,9.32
2023-01-13T11:55:11.829Z,9.24
2023-01-13T11:57:43.107Z,9.24
2023-01-13T12:00:48.762Z,9.18
2023-01-13T12:03:40.169Z,9.27
2023-01-13T12:06:33.118Z,9.28
2023-01-13T12:09:07.845Z,9.39
2023-01-13T12:11:46.163Z,9.45
2023-01-13T12:14:35.403Z,9.47
2023-01-13T12:17:09.052Z,9.44
2023-01-13T12:19:38.727Z,9.45
2023-01-13T12:22:13.829Z,9.51
2023-01-13T12:25:08.645Z,9.45
2023-01-13T12:27:44.866Z,9.45
2023-01-13T12:30:27.587Z,9.49
2023-01-13T12:33:06.911Z,9.51
2023-01-13T12:35:45.955Z,9.58
2023-01-13T12:38:36.587Z,9.61
2023-01-13T12:41:16.401Z,9.65
2023-01-13T12:43:48.079Z,9.66
2023-01-13T12:46:20.282Z,9.69
2023-01-13T12:48:53.068Z,9.70
2023-01-13T12:51:28.907Z,9.65
2023-01-13T12:53:58.824Z,9.63
2023-01-13T12:56:41.663Z,9.65
2023-01-13T12:59:19.879Z,9.69
2023-01-13T13:01:48.519Z,9.72
2023-01-13T13:04:20.489Z,9.70
2023-01-13T13:07:07.918Z,9.75
2023-01-13T13:09:43.626Z,9.79
2023-01-13T13:12:28.746Z,9.77
2023-01-13T13:14:55.246Z,9.81
2023-01-13T13:17:30.878Z,9.83
2023-01-13T13:19:59.408Z,9.82
2023-01-13T13:22:28.667Z,9.82
2023-01-13T13:24:54.951Z,9.84
2023-01-13T13:27:46.605Z,9.83
2023-01-13T13:30:27.380Z,9.80
2023-01-13T13:33:20.783Z,9.77
2023-01-13T13:36:22.956Z,9.86
2023-01-13T13:39:16.078Z,9.85
2023-01-13T13:41:46.839Z,9.81
2023-01-13T13:44:21.164Z,9.79
2023-01-13T13:46:48.733Z,9.80
2023-01-13T13:49:21.416Z,9.82
2023-01-13T13:52:13.393Z,9.82
2023-01-13T13:54:42.656Z,9.79
2023-01-13T13:57:19.124Z,9.85
2023-01-13T13:59:45.359Z,9.83
2023-01-13T14:02:19.660Z,9.76
2023-01-13T14:04:46.033Z,9.70
2023-01-13T14:07:20.943Z,9.71
2023-01-13T14:09:50.598Z,9.75
2023-01-13T14:12:24.627Z,9.81
2023-01-13T14:14:51.984Z,9.79
2023-01-13T14:17:38.460Z,9.77
2023-01-13T14:20:16.974Z,9.80
2023-01-13T14:22:52.394Z,9.83
2023-01-13T14:25:30.224Z,9.73
2023-01-13T14:27:58.730Z,9.74
2023-01-13T14:30:27.324Z,9.72
2023-01-13T14:32:54.638Z,9.73
2023-01-13T14:35:23.241Z,9.70
2023-01-13T14:37:49.764Z,9.69
2023-01-13T14:40:34.609Z,9.70
2023-01-13T14:43:11.766Z,9.63
2023-01-13T14:45:39.503Z,9.66
2023-01-13T14:48:09.177Z,9.68
2023-01-13T14:50:37.047Z,9.70
2023-01-13T14:53:05.687Z,9.71
2023-01-13T14:55:36.575Z,9.70
2023-01-13T14:58:21.260Z,9.68
2023-01-13T15:00:50.358Z,9.70
2023-01-13T15:03:19.177Z,9.63
2023-01-13T15:05:50.899Z,9.60
2023-01-13T15:08:21.661Z,9.58
2023-01-13T15:10:51.052Z,9.57
2023-01-13T15:13:53.129Z,9.51
2023-01-13T15:16:28.202Z,9.60
2023-01-13T15:18:56.852Z,9.56
2023-01-13T15:21:23.756Z,9.55
2023-01-13T15:23:50.074Z,9.55
2023-01-13T15:26:27.657Z,9.55
2023-01-13T15:28:56.917Z,9.51
2023-01-13T15:31:24.632Z,9.48
2023-01-13T15:33:51.171Z,9.47
2023-01-13T15:36:24.577Z,9.38
2023-01-13T15:38:51.920Z,9.42
2023-01-13T15:41:18.429Z,9.40
2023-01-13T15:43:44.721Z,9.35
2023-01-13T15:46:19.647Z,9.34
2023-01-13T15:48:46.485Z,9.37
2023-01-13T15:51:19.456Z,9.31
2023-01-13T15:53:45.826Z,9.30
2023-01-13T15:56:19.945Z,9.29
2023-01-13T15:58:46.390Z,9.25
2023-01-13T16:01:12.843Z,9.20
2023-01-13T16:03:40.489Z,9.22
2023-01-13T16:06:18.168Z,9.30
2023-01-13T16:08:44.594Z,9.18
2023-01-13T16:11:11.563Z,9.22
2023-01-13T16:13:38.016Z,9.23
2023-01-13T16:16:17.715Z,9.13
2023-01-13T16:18:44.271Z,9.23
2023-01-13T16:21:12.415Z,9.29
2023-01-13T16:23:39.147Z,9.28
2023-01-13T16:26:06.964Z,9.24
2023-01-13T16:28:33.518Z,9.24
2023-01-13T16:30:59.898Z,9.25
2023-01-13T16:33:26.399Z,9.14
2023-01-13T16:36:10.843Z,9.19
2023-01-13T16:38:38.866Z,9.12
2023-01-13T16:41:05.660Z,9.07
2023-01-13T16:43:34.048Z,8.98
2023-01-13T16:46:00.521Z,8.95
2023-01-13T16:48:28.232Z,9.06
2023-01-13T16:50:54.822Z,9.10
2023-01-13T16:53:21.304Z,9.06
2023-01-13T16:55:47.659Z,8.98
2023-01-13T16:58:20.057Z,8.99
2023-01-13T17:00:49.018Z,8.78
2023-01-13T17:03:17.195Z,8.63
2023-01-13T17:05:45.508Z,8.39
2023-01-13T17:08:17.135Z,8.09
2023-01-13T17:10:47.532Z,8.11
2023-01-13T17:13:16.729Z,8.11
2023-01-13T17:15:46.336Z,8.10
2023-01-13T17:18:12.688Z,8.03
2023-01-13T17:20:39.104Z,7.93
2023-01-13T17:23:05.656Z,7.81
2023-01-13T17:25:32.002Z,7.81
2023-01-13T17:28:01.118Z,7.75
2023-01-13T17:30:28.617Z,7.79
2023-01-13T17:32:55.276Z,7.74
2023-01-13T17:35:21.849Z,7.71
2023-01-13T17:37:48.168Z,7.53
2023-01-13T17:40:19.431Z,7.45
2023-01-13T17:42:45.762Z,7.32
2023-01-13T17:45:12.112Z,7.32
2023-01-13T17:47:38.777Z,7.27
2023-01-13T17:50:06.821Z,7.28
2023-01-13T17:52:34.497Z,7.16
2023-01-13T17:55:00.900Z,7.15
2023-01-13T17:57:27.293Z,7.13
2023-01-13T17:59:53.629Z,7.13
2023-01-13T18:02:20.105Z,7.19
2023-01-13T18:04:46.629Z,7.20
2023-01-13T18:07:13.013Z,7.24
2023-01-13T18:09:40.850Z,7.28
2023-01-13T18:12:07.281Z,7.38
2023-01-13T18:14:34.322Z,7.45
2023-01-13T18:17:00.719Z,7.46
2023-01-13T18:19:27.076Z,7.45
2023-01-13T18:21:54.473Z,7.42
2023-01-13T18:24:20.836Z,7.51
2023-01-13T18:26:48.452Z,7.51
2023-01-13T18:29:15.881Z,7.61
2023-01-13T18:31:43.655Z,7.70
2023-01-13T18:34:10.682Z,7.73
2023-01-13T18:36:38.000Z,7.71
2023-01-13T18:39:04.443Z,7.80
2023-01-13T18:41:31.243Z,7.88
2023-01-13T18:43:57.813Z,7.80
2023-01-13T18:46:25.289Z,7.69
2023-01-13T18:48:51.743Z,7.61
2023-01-13T18:51:18.185Z,7.76
2023-01-13T18:53:44.819Z,7.74
2023-01-13T18:56:12.632Z,7.79
2023-01-13T18:58:40.055Z,7.79
2023-01-13T19:01:06.552Z,7.77
2023-01-13T19:03:33.000Z,7.77
2023-01-13T19:06:04.313Z,7.77
2023-01-13T19:08:30.611Z,7.80
2023-01-13T19:10:56.952Z,7.82
2023-01-13T19:13:23.232Z,7.78
2023-01-13T19:15:49.585Z,7.76
2023-01-13T19:18:15.938Z,7.84
2023-01-13T19:20:42.280Z,7.74
2023-01-13T19:23:08.725Z,7.78
2023-01-13T19:25:36.427Z,7.82
2023-01-13T19:28:02.891Z,7.88
2023-01-13T19:30:29.228Z,7.90
2023-01-13T19:32:56.351Z,7.89
2023-01-13T19:35:22.703Z,7.94
2023-01-13T19:37:49.036Z,7.95
2023-01-13T19:40:15.628Z,7.92
2023-01-13T19:42:45.028Z,7.91
2023-01-13T19:45:15.898Z,8.00
2023-01-13T19:47:42.340Z,7.92
2023-01-13T19:50:09.557Z,7.97
2023-01-13T19:52:35.858Z,7.98
2023-01-13T19:55:02.174Z,7.98
2023-01-13T19:57:28.826Z,7.98
2023-01-13T19:59:56.554Z,7.98
2023-01-13T20:02:24.097Z,7.91
2023-01-13T20:04:50.467Z,8.01
2023-01-13T20:07:16.805Z,7.98
2023-01-13T20:09:43.161Z,8.01
2023-01-13T20:12:10.196Z,7.99
2023-01-13T20:14:36.544Z,8.01
2023-01-13T20:17:03.038Z,7.91
2023-01-13T20:19:29.919Z,7.94
2023-01-13T20:21:56.298Z,7.92
2023-01-13T20:24:22.621Z,7.86
2023-01-13T20:26:48.948Z,7.81
2023-01-13T20:29:15.260Z,7.88
2023-01-13T20:31:41.611Z,7.88
2023-01-13T20:34:08.560Z,7.80
2023-01-13T20:36:35.847Z,7.79
2023-01-13T20:39:03.959Z,7.70
2023-01-13T20:41:31.865Z,7.66
2023-01-13T20:43:58.177Z,7.57
2023-01-13T20:46:24.582Z,7.64
2023-01-13T20:48:50.946Z,7.58
2023-01-13T20:51:17.282Z,7.66
2023-01-13T20:53:43.654Z,7.56
2023-01-13T20:56:10.313Z,7.53
2023-01-13T20:58:39.467Z,7.48
2023-01-13T21:01:05.989Z,7.56
2023-01-13T21:03:32.624Z,7.67
2023-01-13T21:05:59.143Z,7.68
2023-01-13T21:08:25.615Z,7.73
2023-01-13T21:10:58.439Z,7.80
2023-01-13T21:13:24.756Z,7.82
2023-01-13T21:15:51.062Z,7.88
2023-01-13T21:18:17.345Z,7.83
2023-01-13T21:20:43.742Z,7.80
2023-01-13T21:23:10.136Z,7.87
2023-01-13T21:25:36.494Z,7.96
2023-01-13T21:28:02.868Z,7.88
2023-01-13T21:30:29.184Z,7.98
2023-01-13T21:32:55.510Z,7.93
2023-01-13T21:35:22.265Z,8.00
2023-01-13T21:37:48.628Z,7.97
2023-01-13T21:40:15.040Z,7.94
2023-01-13T21:42:41.412Z,7.91
2023-01-13T21:45:10.158Z,7.90
2023-01-13T21:47:36.674Z,7.89
2023-01-13T21:50:06.677Z,7.84
2023-01-13T21:52:33.136Z,7.74
2023-01-13T21:54:59.513Z,7.65
2023-01-13T21:57:27.371Z,7.67
2023-01-13T21:59:54.172Z,7.81
2023-01-13T22:02:24.495Z,7.89
2023-01-13T22:04:51.404Z,7.87
2023-01-13T22:07:18.799Z,7.88
2023-01-13T22:09:45.157Z,7.85
2023-01-13T22:12:11.477Z,7.94
2023-01-13T22:14:37.951Z,7.93
2023-01-13T22:17:04.452Z,7.89
2023-01-13T22:19:30.764Z,7.87
2023-01-13T22:21:57.182Z,7.90
2023-01-13T22:24:23.481Z,7.98
2023-01-13T22:26:49.833Z,8.00
2023-01-13T22:29:16.297Z,7.99
2023-01-13T22:31:42.736Z,8.07
2023-01-13T22:34:12.030Z,8.08
2023-01-13T22:36:38.396Z,8.05
2023-01-13T22:39:05.953Z,8.14
2023-01-13T22:41:32.328Z,8.21
2023-01-13T22:43:58.635Z,8.27
2023-01-13T22:46:24.947Z,8.27
2023-01-13T22:48:51.248Z,8.28
2023-01-13T22:51:17.570Z,8.32
2023-01-13T22:53:44.355Z,8.33
2023-01-13T22:56:16.917Z,8.30
2023-01-13T22:58:44.089Z,8.21
2023-01-13T23:01:17.502Z,8.19
2023-01-13T23:03:44.263Z,8.14
2023-01-13T23:06:10.906Z,8.15
2023-01-13T23:08:37.704Z,8.08
2023-01-13T23:11:09.654Z,8.10
2023-01-13T23:13:36.890Z,8.13
2023-01-13T23:16:05.495Z,8.14
2023-01-13T23:18:32.596Z,8.12
2023-01-13T23:21:12.953Z,8.12
2023-01-13T23:23:39.999Z,8.16
2023-01-13T23:26:07.362Z,8.23
2023-01-13T23:28:34.897Z,8.24
2023-01-13T23:31:09.713Z,8.21
2023-01-13T23:33:36.465Z,8.22
2023-01-13T23:36:05.671Z,8.20
2023-01-13T23:38:32.513Z,8.27
2023-01-13T23:40:59.613Z,8.18
2023-01-13T23:43:26.462Z,8.21
2023-01-13T23:46:00.371Z,8.19
2023-01-13T23:48:26.682Z,8.23
2023-01-13T23:50:57.371Z,8.21
2023-01-13T23:53:23.723Z,8.19
2023-01-13T23:55:56.788Z,8.19
2023-01-13T23:58:23.096Z,8.15
